createdAt,value
2022-09-28T00:01:59.664Z,18.03
2022-09-28T00:04:28.328Z,17.98
2022-09-28T00:06:56.916Z,17.93
2022-09-28T00:09:26.522Z,17.88
2022-09-28T00:11:56.642Z,17.82
2022-09-28T00:14:26.662Z,17.77
2022-09-28T00:16:55.245Z,17.71
2022-09-28T00:19:24.034Z,17.66
2022-09-28T00:21:52.924Z,17.61
2022-09-28T00:24:26.683Z,17.54
2022-09-28T00:26:58.141Z,17.48
2022-09-28T00:29:29.702Z,17.43
2022-09-28T00:32:04.099Z,17.38
2022-09-28T00:34:35.029Z,17.34
2022-09-28T00:37:05.678Z,17.31
2022-09-28T00:39:36.236Z,17.28
2022-09-28T00:42:12.534Z,17.26
2022-09-28T00:44:48.743Z,17.25
2022-09-28T00:47:20.753Z,17.23
2022-09-28T00:50:23.844Z,17.23
2022-09-28T00:53:08.606Z,17.23
2022-09-28T00:55:48.867Z,17.23
2022-09-28T00:58:43.362Z,17.24
2022-09-28T01:01:12.916Z,17.22
2022-09-28T01:03:45.747Z,17.18
2022-09-28T01:06:27.975Z,17.15
2022-09-28T01:09:02.735Z,17.12
2022-09-28T01:11:33.924Z,17.08
2022-09-28T01:14:06.504Z,17.04
2022-09-28T01:16:41.332Z,17.00
2022-09-28T01:20:27.640Z,16.93
2022-09-28T01:23:17.935Z,16.84
2022-09-28T01:26:11.218Z,16.76
2022-09-28T01:28:44.183Z,16.70
2022-09-28T01:31:15.316Z,16.64
2022-09-28T01:33:58.048Z,16.56
2022-09-28T01:36:37.035Z,16.50
2022-09-28T01:39:14.152Z,16.45
2022-09-28T01:41:46.671Z,16.39
2022-09-28T01:44:18.963Z,16.36
2022-09-28T01:46:50.266Z,16.34
2022-09-28T01:49:24.577Z,16.31
2022-09-28T01:52:09.544Z,16.30
2022-09-28T01:54:46.726Z,16.29
2022-09-28T01:57:27.316Z,16.30
2022-09-28T02:00:04.657Z,16.29
2022-09-28T02:03:22.010Z,16.28
2022-09-28T02:06:02.135Z,16.28
2022-09-28T02:08:40.889Z,16.28
2022-09-28T02:11:20.126Z,16.29
2022-09-28T02:14:10.315Z,16.28
2022-09-28T02:16:44.487Z,16.25
2022-09-28T02:19:20.141Z,16.22
2022-09-28T02:21:59.003Z,16.19
2022-09-28T02:24:35.831Z,16.14
2022-09-28T02:27:15.118Z,16.10
2022-09-28T02:29:44.005Z,16.04
2022-09-28T02:32:13.306Z,15.99
2022-09-28T02:34:42.093Z,15.95
2022-09-28T02:37:10.879Z,15.90
2022-09-28T02:39:39.982Z,15.87
2022-09-28T02:42:15.327Z,15.83
2022-09-28T02:44:47.284Z,15.78
2022-09-28T02:47:39.522Z,15.73
2022-09-28T02:50:11.385Z,15.70
2022-09-28T02:52:49.798Z,15.68
2022-09-28T02:56:13.787Z,15.67
2022-09-28T02:59:02.542Z,15.66
2022-09-28T03:01:34.248Z,15.67
2022-09-28T03:04:12.099Z,15.68
2022-09-28T03:06:43.009Z,15.70
2022-09-28T03:09:29.129Z,15.72
2022-09-28T03:12:01.784Z,15.73
2022-09-28T03:14:31.011Z,15.74
2022-09-28T03:17:00.007Z,15.76
2022-09-28T03:19:32.886Z,15.77
2022-09-28T03:22:02.237Z,15.76
2022-09-28T03:24:30.980Z,15.76
2022-09-28T03:26:59.668Z,15.74
2022-09-28T03:29:31.646Z,15.71
2022-09-28T03:32:02.574Z,15.69
2022-09-28T03:34:31.053Z,15.65
2022-09-28T03:37:00.044Z,15.63
2022-09-28T03:39:28.733Z,15.60
2022-09-28T03:41:57.571Z,15.57
2022-09-28T03:44:26.206Z,15.53
2022-09-28T03:46:54.891Z,15.51
2022-09-28T03:49:23.477Z,15.46
2022-09-28T03:51:52.365Z,15.42
2022-09-28T03:54:26.481Z,15.37
2022-09-28T03:56:55.481Z,15.33
2022-09-28T03:59:24.363Z,15.32
2022-09-28T04:01:53.477Z,15.31
2022-09-28T04:04:22.663Z,15.30
2022-09-28T04:06:51.279Z,15.30
2022-09-28T04:09:19.930Z,15.31
2022-09-28T04:12:03.487Z,15.34
2022-09-28T04:14:34.729Z,15.38
2022-09-28T04:17:03.297Z,15.41
2022-09-28T04:19:33.929Z,15.45
2022-09-28T04:22:18.386Z,15.48
2022-09-28T04:24:47.071Z,15.52
2022-09-28T04:27:34.089Z,15.55
2022-09-28T04:30:04.637Z,15.58
2022-09-28T04:32:35.152Z,15.60
2022-09-28T04:35:04.347Z,15.61
2022-09-28T04:37:34.168Z,15.62
2022-09-28T04:40:04.490Z,15.63
2022-09-28T04:42:34.051Z,15.63
2022-09-28T04:45:05.098Z,15.64
2022-09-28T04:47:37.199Z,15.65
2022-09-28T04:50:31.794Z,15.67
2022-09-28T04:53:21.166Z,15.68
2022-09-28T04:56:06.791Z,15.70
2022-09-28T04:58:36.212Z,15.71
2022-09-28T05:01:07.549Z,15.70
2022-09-28T05:03:54.515Z,15.70
2022-09-28T05:06:33.750Z,15.73
2022-09-28T05:09:09.941Z,15.74
2022-09-28T05:11:38.700Z,15.76
2022-09-28T05:14:13.590Z,15.79
2022-09-28T05:16:42.794Z,15.84
2022-09-28T05:19:23.707Z,15.91
2022-09-28T05:21:53.324Z,15.96
2022-09-28T05:24:21.900Z,16.00
2022-09-28T05:26:54.269Z,16.07
2022-09-28T05:29:23.063Z,16.15
2022-09-28T05:32:30.046Z,16.24
2022-09-28T05:35:13.510Z,16.33
2022-09-28T05:37:47.693Z,16.39
2022-09-28T05:40:16.850Z,16.42
2022-09-28T05:42:45.696Z,16.47
2022-09-28T05:45:15.289Z,16.51
2022-09-28T05:47:46.521Z,16.55
2022-09-28T05:50:18.909Z,16.60
2022-09-28T05:52:48.120Z,16.63
2022-09-28T05:55:16.690Z,16.68
2022-09-28T05:57:45.381Z,16.73
2022-09-28T06:00:14.577Z,16.74
2022-09-28T06:02:43.710Z,16.75
2022-09-28T06:05:14.917Z,16.77
2022-09-28T06:07:43.402Z,16.80
2022-09-28T06:10:11.983Z,16.82
2022-09-28T06:12:45.995Z,16.82
2022-09-28T06:15:17.767Z,16.82
2022-09-28T06:17:48.187Z,16.85
2022-09-28T06:20:49.127Z,16.90
2022-09-28T06:23:19.659Z,16.95
2022-09-28T06:25:48.340Z,16.97
2022-09-28T06:28:17.947Z,16.98
2022-09-28T06:30:48.825Z,17.00
2022-09-28T06:33:20.037Z,17.04
2022-09-28T06:35:48.833Z,17.10
2022-09-28T06:38:19.966Z,17.14
2022-09-28T06:40:50.265Z,17.20
2022-09-28T06:43:19.284Z,17.27
2022-09-28T06:46:10.092Z,17.35
2022-09-28T06:48:57.207Z,17.42
2022-09-28T06:51:46.786Z,17.50
2022-09-28T06:54:37.486Z,17.57
2022-09-28T06:57:28.701Z,17.65
2022-09-28T06:59:57.800Z,17.73
2022-09-28T07:02:26.551Z,17.77
2022-09-28T07:05:04.391Z,17.84
2022-09-28T07:07:49.934Z,17.95
2022-09-28T07:10:28.572Z,18.04
2022-09-28T07:13:47.178Z,18.09
2022-09-28T07:16:09.939Z,18.15
2022-09-28T07:18:38.627Z,18.20
2022-09-28T07:21:13.123Z,18.23
2022-09-28T07:23:52.400Z,18.27
2022-09-28T07:26:26.331Z,18.33
2022-09-28T07:29:17.460Z,18.36
2022-09-28T07:31:58.443Z,18.40
2022-09-28T07:34:45.555Z,18.45
2022-09-28T07:37:20.598Z,18.49
2022-09-28T07:40:09.031Z,18.52
2022-09-28T07:42:39.470Z,18.57
2022-09-28T07:45:08.977Z,18.63
2022-09-28T07:47:38.469Z,18.68
2022-09-28T07:50:14.231Z,18.74
2022-09-28T07:53:06.162Z,18.83
2022-09-28T07:56:07.321Z,18.93
2022-09-28T07:58:44.086Z,19.03
2022-09-28T08:01:39.092Z,19.11
2022-09-28T08:04:09.722Z,19.17
2022-09-28T08:06:40.967Z,19.25
2022-09-28T08:09:11.599Z,19.29
2022-09-28T08:11:59.918Z,19.36
2022-09-28T08:14:37.983Z,19.44
2022-09-28T08:17:29.575Z,19.53
2022-09-28T08:20:20.280Z,19.64
2022-09-28T08:22:49.068Z,19.75
2022-09-28T08:25:17.704Z,19.86
2022-09-28T08:27:46.443Z,19.96
2022-09-28T08:30:16.371Z,20.04
2022-09-28T08:33:04.161Z,20.13
2022-09-28T08:35:47.111Z,20.26
2022-09-28T08:38:19.893Z,20.38
2022-09-28T08:41:28.202Z,20.52
2022-09-28T08:44:25.758Z,20.69
2022-09-28T08:47:45.014Z,20.85
2022-09-28T08:50:31.685Z,21.04
2022-09-28T08:53:28.501Z,21.22
2022-09-28T08:56:26.885Z,21.42
2022-09-28T08:59:02.352Z,21.56
2022-09-28T09:01:39.681Z,21.74
2022-09-28T09:04:13.026Z,21.92
2022-09-28T09:07:40.488Z,22.12
2022-09-28T09:10:30.777Z,22.32
2022-09-28T09:13:37.962Z,22.49
2022-09-28T09:16:25.107Z,22.71
2022-09-28T09:19:35.962Z,22.92
2022-09-28T09:22:18.163Z,23.18
2022-09-28T09:25:28.843Z,23.41
2022-09-28T09:28:02.611Z,23.67
2022-09-28T09:30:57.535Z,23.87
2022-09-28T09:33:44.555Z,24.08
2022-09-28T09:37:17.964Z,24.28
2022-09-28T09:40:30.834Z,24.47
2022-09-28T09:44:03.820Z,24.62
2022-09-28T09:47:02.565Z,24.78
2022-09-28T09:50:16.538Z,24.93
2022-09-28T09:52:58.620Z,25.05
2022-09-28T09:55:40.584Z,25.16
2022-09-28T09:58:39.920Z,25.30
2022-09-28T10:01:43.732Z,25.43
2022-09-28T10:04:24.400Z,25.56
2022-09-28T10:06:59.473Z,25.68
2022-09-28T10:09:35.542Z,25.79
2022-09-28T10:12:22.266Z,25.91
2022-09-28T10:14:51.194Z,26.00
2022-09-28T10:17:27.051Z,25.98
2022-09-28T10:20:16.500Z,25.98
2022-09-28T10:23:02.317Z,26.07
2022-09-28T10:25:35.095Z,26.13
2022-09-28T10:28:06.547Z,26.13
2022-09-28T10:30:44.637Z,26.14
2022-09-28T10:33:34.362Z,26.18
2022-09-28T10:36:07.532Z,26.19
2022-09-28T10:38:36.314Z,26.14
2022-09-28T10:41:17.456Z,26.12
2022-09-28T10:44:07.016Z,26.17
2022-09-28T10:47:04.818Z,26.19
2022-09-28T10:49:46.814Z,26.20
2022-09-28T10:52:45.532Z,26.24
2022-09-28T10:55:33.794Z,26.22
2022-09-28T10:58:24.575Z,26.21
2022-09-28T11:01:00.229Z,26.15
2022-09-28T11:03:31.453Z,26.12
2022-09-28T11:06:08.120Z,26.09
2022-09-28T11:08:42.212Z,26.00
2022-09-28T11:11:16.206Z,25.87
2022-09-28T11:13:53.004Z,25.85
2022-09-28T11:16:33.441Z,25.86
2022-09-28T11:19:30.151Z,25.88
2022-09-28T11:21:59.350Z,25.76
2022-09-28T11:24:36.536Z,25.70
2022-09-28T11:27:05.531Z,25.71
2022-09-28T11:29:59.516Z,25.74
2022-09-28T11:32:44.939Z,25.71
2022-09-28T11:35:37.922Z,25.74
2022-09-28T11:38:26.025Z,25.80
2022-09-28T11:41:43.520Z,25.82
2022-09-28T11:44:47.735Z,25.82
2022-09-28T11:47:47.657Z,25.79
2022-09-28T11:50:26.081Z,25.67
2022-09-28T11:53:39.669Z,25.64
2022-09-28T11:56:36.467Z,25.66
2022-09-28T11:59:11.106Z,25.67
2022-09-28T12:02:17.136Z,25.67
2022-09-28T12:04:57.176Z,25.68
2022-09-28T12:07:33.365Z,25.67
2022-09-28T12:10:09.778Z,25.65
2022-09-28T12:12:48.001Z,25.65
2022-09-28T12:16:07.435Z,25.66
2022-09-28T12:18:50.640Z,25.60
2022-09-28T12:21:28.145Z,25.51
2022-09-28T12:24:22.423Z,25.46
2022-09-28T12:27:03.706Z,25.44
2022-09-28T12:29:43.971Z,25.45
2022-09-28T12:32:15.725Z,25.49
2022-09-28T12:34:45.039Z,25.53
2022-09-28T12:37:32.243Z,25.57
2022-09-28T12:40:27.206Z,25.61
2022-09-28T12:43:07.803Z,25.63
2022-09-28T12:45:59.766Z,25.64
2022-09-28T12:49:33.161Z,25.62
2022-09-28T12:51:54.973Z,25.57
2022-09-28T12:54:48.648Z,25.52
2022-09-28T12:57:36.486Z,25.49
2022-09-28T13:00:23.175Z,25.45
2022-09-28T13:03:31.960Z,25.42
2022-09-28T13:06:15.553Z,25.41
2022-09-28T13:09:14.960Z,25.38
2022-09-28T13:12:16.133Z,25.37
2022-09-28T13:15:09.785Z,25.36
2022-09-28T13:18:02.006Z,25.37
2022-09-28T13:21:03.385Z,25.35
2022-09-28T13:23:44.673Z,25.33
2022-09-28T13:26:30.851Z,25.30
2022-09-28T13:29:11.564Z,25.29
2022-09-28T13:31:55.153Z,25.31
2022-09-28T13:34:32.972Z,25.31
2022-09-28T13:37:24.683Z,25.28
2022-09-28T13:39:58.505Z,25.25
2022-09-28T13:42:29.944Z,25.23
2022-09-28T13:45:01.708Z,25.21
2022-09-28T13:47:42.466Z,25.17
2022-09-28T13:50:27.849Z,25.14
2022-09-28T13:53:33.844Z,25.12
2022-09-28T13:56:24.778Z,25.11
2022-09-28T13:59:11.322Z,25.10
2022-09-28T14:01:44.183Z,25.08
2022-09-28T14:04:22.288Z,25.07
2022-09-28T14:07:11.402Z,25.06
2022-09-28T14:10:18.470Z,25.04
2022-09-28T14:12:52.147Z,25.01
2022-09-28T14:15:29.990Z,24.98
2022-09-28T14:18:10.842Z,24.95
2022-09-28T14:20:51.211Z,24.91
2022-09-28T14:23:25.554Z,24.88
2022-09-28T14:26:12.538Z,24.84
2022-09-28T14:29:14.327Z,24.82
2022-09-28T14:31:44.221Z,24.78
2022-09-28T14:34:36.065Z,24.76
2022-09-28T14:37:37.604Z,24.74
2022-09-28T14:40:55.345Z,24.71
2022-09-28T14:43:58.234Z,24.68
2022-09-28T14:46:33.836Z,24.65
2022-09-28T14:49:13.014Z,24.63
2022-09-28T14:51:41.699Z,24.60
2022-09-28T14:54:12.944Z,24.59
2022-09-28T14:56:53.922Z,24.57
2022-09-28T14:59:36.390Z,24.54
2022-09-28T15:02:10.855Z,24.51
2022-09-28T15:05:09.132Z,24.49
2022-09-28T15:07:48.419Z,24.45
2022-09-28T15:10:33.687Z,24.43
2022-09-28T15:13:05.994Z,24.39
2022-09-28T15:15:41.049Z,24.37
2022-09-28T15:18:09.631Z,24.35
2022-09-28T15:20:42.055Z,24.32
2022-09-28T15:23:44.329Z,24.29
2022-09-28T15:26:48.498Z,24.25
2022-09-28T15:29:18.412Z,24.21
2022-09-28T15:31:50.004Z,24.17
2022-09-28T15:34:51.322Z,24.13
2022-09-28T15:37:27.059Z,24.10
2022-09-28T15:39:58.011Z,24.07
2022-09-28T15:42:27.306Z,24.04
2022-09-28T15:45:01.937Z,24.00
2022-09-28T15:47:33.193Z,23.97
2022-09-28T15:50:05.381Z,23.93
2022-09-28T15:52:37.114Z,23.90
2022-09-28T15:55:36.412Z,23.86
2022-09-28T15:58:23.008Z,23.82
2022-09-28T16:01:36.846Z,23.78
2022-09-28T16:04:48.202Z,23.73
2022-09-28T16:07:16.734Z,23.69
2022-09-28T16:10:25.439Z,23.65
2022-09-28T16:12:59.130Z,23.62
2022-09-28T16:15:32.364Z,23.57
2022-09-28T16:18:22.444Z,23.54
2022-09-28T16:20:54.115Z,23.50
2022-09-28T16:23:34.410Z,23.46
2022-09-28T16:26:08.995Z,23.42
2022-09-28T16:28:41.069Z,23.39
2022-09-28T16:31:12.776Z,23.34
2022-09-28T16:33:47.023Z,23.31
2022-09-28T16:36:17.535Z,23.27
2022-09-28T16:38:47.264Z,23.24
2022-09-28T16:41:20.888Z,23.21
2022-09-28T16:43:55.051Z,23.17
2022-09-28T16:46:36.846Z,23.14
2022-09-28T16:49:13.348Z,23.10
2022-09-28T16:51:41.931Z,23.07
2022-09-28T16:54:32.324Z,23.03
2022-09-28T16:57:02.444Z,22.98
2022-09-28T16:59:31.554Z,22.94
2022-09-28T17:02:00.556Z,22.90
2022-09-28T17:04:29.222Z,22.87
2022-09-28T17:06:58.626Z,22.83
2022-09-28T17:09:27.121Z,22.80
2022-09-28T17:11:57.330Z,22.76
2022-09-28T17:14:26.057Z,22.72
2022-09-28T17:17:08.082Z,22.66
2022-09-28T17:19:38.145Z,22.62
2022-09-28T17:22:08.567Z,22.57
2022-09-28T17:24:37.974Z,22.53
2022-09-28T17:27:07.371Z,22.49
2022-09-28T17:29:36.056Z,22.45
2022-09-28T17:32:15.292Z,22.41
2022-09-28T17:34:51.506Z,22.36
2022-09-28T17:37:24.545Z,22.32
2022-09-28T17:39:53.229Z,22.28
2022-09-28T17:42:21.847Z,22.25
2022-09-28T17:44:50.394Z,22.21
2022-09-28T17:47:19.083Z,22.16
2022-09-28T17:49:47.770Z,22.11
2022-09-28T17:52:16.359Z,22.05
2022-09-28T17:54:44.936Z,22.01
2022-09-28T17:57:13.931Z,21.98
2022-09-28T17:59:42.517Z,21.96
2022-09-28T18:02:12.121Z,21.93
2022-09-28T18:04:51.745Z,21.89
2022-09-28T18:07:21.582Z,21.86
2022-09-28T18:09:57.046Z,21.83
2022-09-28T18:12:25.715Z,21.79
2022-09-28T18:14:54.311Z,21.75
2022-09-28T18:17:23.083Z,21.69
2022-09-28T18:19:51.872Z,21.63
2022-09-28T18:22:20.570Z,21.58
2022-09-28T18:24:49.451Z,21.52
2022-09-28T18:27:18.137Z,21.48
2022-09-28T18:29:46.726Z,21.43
2022-09-28T18:32:15.442Z,21.37
2022-09-28T18:34:43.981Z,21.33
2022-09-28T18:37:12.536Z,21.32
2022-09-28T18:39:41.080Z,21.29
2022-09-28T18:42:10.691Z,21.28
2022-09-28T18:44:39.354Z,21.27
2022-09-28T18:47:07.799Z,21.24
2022-09-28T18:49:36.467Z,21.22
2022-09-28T18:52:05.498Z,21.20
2022-09-28T18:54:34.102Z,21.17
2022-09-28T18:57:02.703Z,21.15
2022-09-28T18:59:31.519Z,21.12
2022-09-28T19:02:02.047Z,21.09
2022-09-28T19:04:31.375Z,21.06
2022-09-28T19:07:00.144Z,21.04
2022-09-28T19:09:28.880Z,21.01
2022-09-28T19:11:57.567Z,20.99
2022-09-28T19:14:26.656Z,20.96
2022-09-28T19:16:55.451Z,20.92
2022-09-28T19:19:23.929Z,20.88
2022-09-28T19:21:52.451Z,20.83
2022-09-28T19:24:21.520Z,20.78
2022-09-28T19:26:50.230Z,20.74
2022-09-28T19:29:18.863Z,20.70
2022-09-28T19:31:47.804Z,20.67
2022-09-28T19:34:16.469Z,20.63
2022-09-28T19:36:45.767Z,20.59
2022-09-28T19:39:15.785Z,20.57
2022-09-28T19:41:51.600Z,20.53
2022-09-28T19:44:25.926Z,20.49
2022-09-28T19:47:07.680Z,20.45
2022-09-28T19:49:40.274Z,20.40
2022-09-28T19:52:16.375Z,20.35
2022-09-28T19:54:56.049Z,20.29
2022-09-28T19:57:35.172Z,20.24
2022-09-28T20:00:04.566Z,20.17
2022-09-28T20:02:37.925Z,20.13
2022-09-28T20:05:08.533Z,20.11
2022-09-28T20:07:37.180Z,20.09
2022-09-28T20:10:06.581Z,20.06
2022-09-28T20:12:35.072Z,20.01
2022-09-28T20:15:05.447Z,19.98
2022-09-28T20:17:36.275Z,19.94
2022-09-28T20:20:05.349Z,19.90
2022-09-28T20:22:34.006Z,19.87
2022-09-28T20:25:03.514Z,19.82
2022-09-28T20:27:33.326Z,19.79
2022-09-28T20:30:02.320Z,19.74
2022-09-28T20:32:35.718Z,19.71
2022-09-28T20:35:05.119Z,19.67
2022-09-28T20:37:34.524Z,19.56
2022-09-28T20:40:03.006Z,19.47
2022-09-28T20:42:32.307Z,19.42
2022-09-28T20:45:01.095Z,19.39
2022-09-28T20:47:29.780Z,19.36
2022-09-28T20:49:58.675Z,19.33
2022-09-28T20:52:27.377Z,19.32
2022-09-28T20:54:56.296Z,19.30
2022-09-28T20:57:25.041Z,19.26
2022-09-28T20:59:54.860Z,19.23
2022-09-28T21:02:24.021Z,19.20
2022-09-28T21:04:52.735Z,19.16
2022-09-28T21:07:21.424Z,19.06
2022-09-28T21:09:50.847Z,19.01
2022-09-28T21:12:19.722Z,18.99
2022-09-28T21:14:48.199Z,18.97
2022-09-28T21:17:16.682Z,18.96
2022-09-28T21:19:45.581Z,18.94
2022-09-28T21:22:14.361Z,18.91
2022-09-28T21:24:42.947Z,18.88
2022-09-28T21:27:11.430Z,18.81
2022-09-28T21:29:39.909Z,18.68
2022-09-28T21:32:08.801Z,18.62
2022-09-28T21:34:37.385Z,18.59
2022-09-28T21:37:06.174Z,18.58
2022-09-28T21:39:34.759Z,18.49
2022-09-28T21:42:03.580Z,18.37
2022-09-28T21:44:32.134Z,18.29
2022-09-28T21:47:00.717Z,18.18
2022-09-28T21:49:29.709Z,18.10
2022-09-28T21:51:58.293Z,18.06
2022-09-28T21:54:28.311Z,18.01
2022-09-28T21:56:56.999Z,17.93
2022-09-28T21:59:26.197Z,17.80
2022-09-28T22:01:54.934Z,17.77
2022-09-28T22:04:23.585Z,17.77
2022-09-28T22:06:52.156Z,17.75
2022-09-28T22:09:20.736Z,17.75
2022-09-28T22:11:49.744Z,17.76
2022-09-28T22:14:18.764Z,17.78
2022-09-28T22:16:47.736Z,17.81
2022-09-28T22:19:16.214Z,17.82
2022-09-28T22:21:45.502Z,17.80
2022-09-28T22:24:14.329Z,17.79
2022-09-28T22:26:42.878Z,17.80
2022-09-28T22:29:11.671Z,17.80
2022-09-28T22:31:41.814Z,17.79
2022-09-28T22:34:10.581Z,17.79
2022-09-28T22:36:39.366Z,17.79
2022-09-28T22:39:08.406Z,17.81
2022-09-28T22:41:37.044Z,17.79
2022-09-28T22:44:05.942Z,17.76
2022-09-28T22:46:34.777Z,17.76
2022-09-28T22:49:03.521Z,17.75
2022-09-28T22:51:32.105Z,17.72
2022-09-28T22:54:01.532Z,17.69
2022-09-28T22:56:30.457Z,17.68
2022-09-28T22:58:59.641Z,17.65
2022-09-28T23:01:30.572Z,17.63
2022-09-28T23:03:59.833Z,17.61
2022-09-28T23:06:31.031Z,17.61
2022-09-28T23:08:59.866Z,17.62
2022-09-28T23:11:29.986Z,17.62
2022-09-28T23:14:00.001Z,17.61
2022-09-28T23:16:28.740Z,17.60
2022-09-28T23:18:58.091Z,17.60
2022-09-28T23:21:28.897Z,17.58
2022-09-28T23:24:01.764Z,17.56
2022-09-28T23:26:32.858Z,17.54
2022-09-28T23:29:01.754Z,17.53
2022-09-28T23:31:32.854Z,17.47
2022-09-28T23:34:04.949Z,17.41
2022-09-28T23:36:34.673Z,17.41
2022-09-28T23:39:03.559Z,17.41
2022-09-28T23:41:32.452Z,17.42
2022-09-28T23:44:01.341Z,17.42
2022-09-28T23:46:30.226Z,17.38
2022-09-28T23:48:58.919Z,17.38
2022-09-28T23:51:27.503Z,17.38
2022-09-28T23:53:56.191Z,17.38
2022-09-28T23:56:24.878Z,17.38
2022-09-28T23:58:53.463Z,17.38
